Time;durP1;ratioP1;P1;durP2;ratioP2;P2;SDS_P1;SDS_P2;PMS_P1;PMS_P2;Temp;Humidity;BMP_temperature;BMP_pressure;BME280_temperature;BME280_humidity;BME280_pressure;Samples;Min_cycle;Max_cycle;Signal;HPM_P1;HPM_P2
2022/11/11 00:00:58;;;;;;;9.80;2.60;;;12.10;99.90;;;;;;5022557;28;21027;-64
2022/11/11 00:03:25;;;;;;;4.95;2.20;;;12.10;99.90;;;;;;5000423;28;20209;-64
2022/11/11 00:05:52;;;;;;;5.78;2.80;;;12.10;99.90;;;;;;5017531;28;20201;-64
2022/11/11 00:08:19;;;;;;;6.75;2.38;;;12.10;99.90;;;;;;5004889;28;20232;-64
2022/11/11 00:10:47;;;;;;;6.88;2.85;;;12.10;99.90;;;;;;5028141;28;20225;-64
2022/11/11 00:13:13;;;;;;;9.00;3.47;;;12.10;99.90;;;;;;5015514;28;20201;-64
2022/11/11 00:15:40;;;;;;;7.00;2.95;;;12.10;99.90;;;;;;5021214;28;20806;-64
2022/11/11 00:26:27;;;;;;;7.50;3.40;;;12.10;99.90;;;;;;5007777;28;20216;-64
2022/11/11 00:28:54;;;;;;;6.40;2.78;;;12.20;99.90;;;;;;5015541;28;20261;-64
2022/11/11 00:31:21;;;;;;;10.30;3.13;;;12.10;99.90;;;;;;5010699;28;20240;-64
2022/11/11 00:33:48;;;;;;;4.70;2.90;;;12.10;99.90;;;;;;5003299;28;20695;-64
2022/11/11 00:36:13;;;;;;;5.10;2.97;;;12.10;99.90;;;;;;5001071;28;20675;-64
2022/11/11 00:38:48;;;;;;;7.47;3.65;;;12.10;99.90;;;;;;5014821;28;20197;-64
2022/11/11 00:41:17;;;;;;;6.60;2.70;;;12.10;99.90;;;;;;5009717;28;20208;-67
2022/11/11 00:43:46;;;;;;;4.72;3.03;;;12.10;99.90;;;;;;5016333;28;20210;-64
2022/11/11 00:51:43;;;;;;;5.65;2.95;;;12.10;99.90;;;;;;5013678;28;20239;-64
2022/11/11 00:54:13;;;;;;;4.93;2.53;;;12.00;99.90;;;;;;5011837;28;20207;-64
2022/11/11 00:56:39;;;;;;;4.90;2.78;;;12.00;99.90;;;;;;5000565;28;20218;-64
2022/11/11 00:59:09;;;;;;;9.52;3.45;;;12.00;99.90;;;;;;5008415;28;20229;-64
2022/11/11 01:01:37;;;;;;;9.68;3.13;;;12.00;99.90;;;;;;5011111;28;20221;-64
2022/11/11 01:04:05;;;;;;;6.47;3.30;;;12.00;99.90;;;;;;5028063;28;20221;-64
2022/11/11 01:06:32;;;;;;;8.98;3.67;;;12.00;99.90;;;;;;4982970;28;20660;-65
2022/11/11 01:09:04;;;;;;;8.60;3.47;;;12.00;99.90;;;;;;5011713;28;20210;-64
2022/11/11 01:11:31;;;;;;;5.93;3.17;;;12.00;99.90;;;;;;5013764;28;20221;-65
2022/11/11 01:13:57;;;;;;;6.15;3.10;;;11.90;99.90;;;;;;5017168;28;20325;-64
2022/11/11 01:16:27;;;;;;;9.57;3.58;;;11.90;99.90;;;;;;5024197;28;20233;-64
2022/11/11 01:18:54;;;;;;;8.00;3.28;;;11.90;99.90;;;;;;5028464;28;21117;-64
2022/11/11 01:21:23;;;;;;;8.43;3.30;;;11.90;99.90;;;;;;4996322;28;20221;-65
2022/11/11 01:23:51;;;;;;;5.55;2.90;;;11.80;99.90;;;;;;4999417;28;21076;-64
2022/11/11 01:26:20;;;;;;;4.88;2.67;;;11.90;99.90;;;;;;5016852;28;20319;-64
2022/11/11 01:28:50;;;;;;;8.82;3.42;;;11.80;99.90;;;;;;5005000;28;20766;-64
2022/11/11 01:31:18;;;;;;;7.22;3.65;;;11.80;99.90;;;;;;5012221;28;20221;-64
2022/11/11 01:33:46;;;;;;;8.35;3.25;;;11.70;99.90;;;;;;5024690;28;20201;-64
2022/11/11 01:36:16;;;;;;;6.63;3.63;;;11.80;99.90;;;;;;4998401;28;20210;-64
2022/11/11 01:38:42;;;;;;;5.82;3.00;;;11.70;99.90;;;;;;5012917;28;20210;-64
2022/11/11 01:43:57;;;;;;;5.03;3.65;;;11.80;99.90;;;;;;5007741;28;20267;-64
2022/11/11 01:46:37;;;;;;;8.68;4.03;;;11.70;99.90;;;;;;5016839;28;20208;-64
2022/11/11 01:49:21;;;;;;;6.85;2.97;;;11.70;99.90;;;;;;5028704;28;20201;-64
2022/11/11 01:51:55;;;;;;;6.90;3.42;;;11.70;99.90;;;;;;4992307;28;20571;-64
2022/11/11 01:54:26;;;;;;;8.63;3.50;;;11.70;99.90;;;;;;5011781;28;20208;-64
2022/11/11 01:56:58;;;;;;;10.23;3.50;;;11.70;99.90;;;;;;5014389;28;20201;-64
2022/11/11 01:59:26;;;;;;;8.02;3.67;;;11.60;99.90;;;;;;5003200;28;20202;-64
2022/11/11 02:01:53;;;;;;;8.70;3.63;;;11.60;99.90;;;;;;5015129;28;20202;-63
2022/11/11 02:07:09;;;;;;;9.90;4.07;;;11.60;99.90;;;;;;4999852;28;20335;-63
2022/11/11 02:09:38;;;;;;;7.85;3.88;;;11.60;99.90;;;;;;5009517;28;20198;-64
2022/11/11 02:14:57;;;;;;;8.20;4.20;;;11.50;99.90;;;;;;4999212;28;20652;-64
2022/11/11 02:17:26;;;;;;;6.45;3.28;;;11.50;99.90;;;;;;5029619;28;20225;-63
2022/11/11 02:19:57;;;;;;;5.88;3.72;;;11.60;99.90;;;;;;5026022;28;20364;-64
2022/11/11 02:22:30;;;;;;;8.40;3.90;;;11.50;99.90;;;;;;5000453;28;20208;-64
2022/11/11 02:24:59;;;;;;;5.38;3.60;;;11.50;99.90;;;;;;5016704;28;20205;-64
2022/11/11 02:27:29;;;;;;;8.85;4.45;;;11.50;99.90;;;;;;5019435;28;20229;-64
2022/11/11 02:29:59;;;;;;;7.72;3.90;;;11.40;99.90;;;;;;5017661;28;20774;-64
2022/11/11 02:32:26;;;;;;;13.95;4.80;;;11.50;99.90;;;;;;5018220;28;20867;-64
2022/11/11 02:34:52;;;;;;;6.70;4.13;;;11.40;99.90;;;;;;5031111;28;20678;-64
2022/11/11 02:37:23;;;;;;;10.93;4.53;;;11.40;99.90;;;;;;5004248;28;20599;-64
2022/11/11 02:39:54;;;;;;;7.15;4.32;;;11.40;99.90;;;;;;5029687;28;20194;-64
2022/11/11 02:42:23;;;;;;;7.55;4.55;;;11.40;99.90;;;;;;5016059;28;20336;-64
2022/11/11 02:44:57;;;;;;;8.88;4.90;;;11.40;99.90;;;;;;5022280;28;20217;-64
2022/11/11 02:47:25;;;;;;;11.32;5.10;;;11.40;99.90;;;;;;5021995;28;20215;-64
2022/11/11 02:49:52;;;;;;;7.38;4.78;;;11.40;99.90;;;;;;5030035;28;20206;-64
2022/11/11 02:52:18;;;;;;;8.48;4.65;;;11.40;99.90;;;;;;4999337;28;20232;-64
2022/11/11 02:54:46;;;;;;;10.98;4.80;;;11.40;99.90;;;;;;5027497;28;20208;-64
2022/11/11 02:57:13;;;;;;;10.88;5.70;;;11.40;99.90;;;;;;4998465;28;20325;-64
2022/11/11 02:59:41;;;;;;;9.52;4.97;;;11.40;99.90;;;;;;5033310;28;20198;-63
2022/11/11 03:02:08;;;;;;;10.65;5.45;;;11.40;99.90;;;;;;5001296;28;20979;-63
2022/11/11 03:04:38;;;;;;;11.18;4.75;;;11.40;99.90;;;;;;5014204;28;20225;-64
2022/11/11 03:07:05;;;;;;;9.95;4.38;;;11.40;99.90;;;;;;5016084;28;20736;-64
2022/11/11 03:09:32;;;;;;;10.70;4.57;;;11.40;99.90;;;;;;5007779;28;20308;-64
2022/11/11 03:11:59;;;;;;;10.65;4.75;;;11.40;99.90;;;;;;5011008;28;20237;-64
2022/11/11 03:14:26;;;;;;;7.00;4.43;;;11.40;99.90;;;;;;5023401;28;20202;-64
2022/11/11 03:19:39;;;;;;;11.68;5.05;;;11.40;99.90;;;;;;5016004;28;20415;-64
2022/11/11 03:22:06;;;;;;;8.00;4.50;;;11.40;99.90;;;;;;5029844;28;20209;-64
2022/11/11 03:27:17;;;;;;;9.05;4.32;;;11.40;99.90;;;;;;5016850;28;20208;-64
2022/11/11 03:29:44;;;;;;;7.80;4.07;;;11.40;99.90;;;;;;5026785;28;20574;-64
2022/11/11 03:32:12;;;;;;;7.68;4.53;;;11.30;99.90;;;;;;5006896;28;20237;-63
2022/11/11 03:34:39;;;;;;;10.35;4.32;;;11.40;99.90;;;;;;5010288;28;20201;-64
2022/11/11 03:39:52;;;;;;;6.93;4.35;;;11.40;99.90;;;;;;5005680;28;20217;-64
2022/11/11 03:42:19;;;;;;;11.90;4.75;;;11.40;99.90;;;;;;5035785;28;20205;-64
2022/11/11 03:44:46;;;;;;;8.70;4.53;;;11.30;99.90;;;;;;5006341;28;21102;-64
2022/11/11 03:47:15;;;;;;;9.43;4.88;;;11.40;99.90;;;;;;5005204;28;20213;-64
2022/11/11 03:49:44;;;;;;;9.25;5.18;;;11.30;99.90;;;;;;5019707;28;20430;-64
2022/11/11 03:52:11;;;;;;;10.30;4.78;;;11.30;99.90;;;;;;5015564;28;20287;-64
2022/11/11 03:54:38;;;;;;;5.35;4.20;;;11.30;99.90;;;;;;4998030;28;20205;-64
2022/11/11 03:59:49;;;;;;;11.95;5.47;;;11.30;99.90;;;;;;5001296;28;20256;-65
2022/11/11 04:10:31;;;;;;;11.32;6.13;;;11.30;99.90;;;;;;5028659;28;20236;-64
2022/11/11 04:23:54;;;;;;;9.77;5.97;;;11.30;99.90;;;;;;4993567;28;20285;-64
2022/11/11 04:26:20;;;;;;;9.48;5.88;;;11.30;99.90;;;;;;5020020;28;20273;-64
2022/11/11 04:31:32;;;;;;;11.50;5.63;;;11.30;99.90;;;;;;5021451;28;20784;-64
2022/11/11 04:33:59;;;;;;;8.55;5.40;;;11.30;99.90;;;;;;5011825;28;20208;-64
2022/11/11 04:36:26;;;;;;;8.13;5.60;;;11.30;99.90;;;;;;4988963;28;20201;-64
2022/11/11 04:41:37;;;;;;;8.82;5.80;;;11.30;99.90;;;;;;5015399;28;20232;-64
2022/11/11 04:46:49;;;;;;;8.27;5.13;;;11.30;99.90;;;;;;5008219;28;20589;-64
2022/11/11 04:49:17;;;;;;;10.63;5.70;;;11.20;99.90;;;;;;4994637;28;20236;-64
2022/11/11 04:54:28;;;;;;;11.35;5.85;;;11.20;99.90;;;;;;4986925;28;20216;-64
2022/11/11 04:56:54;;;;;;;10.75;5.10;;;11.20;99.90;;;;;;5011870;28;20202;-64
2022/11/11 04:59:20;;;;;;;13.30;6.55;;;11.20;99.90;;;;;;5012351;28;20695;-65
2022/11/11 05:04:33;;;;;;;14.10;6.50;;;11.20;99.90;;;;;;5021235;28;20267;-64
2022/11/11 05:09:44;;;;;;;15.13;7.20;;;11.10;99.90;;;;;;4977890;28;21733;-64
2022/11/11 05:12:11;;;;;;;16.88;7.55;;;11.10;99.90;;;;;;5015536;28;20714;-65
2022/11/11 05:22:54;;;;;;;11.40;6.80;;;11.10;99.90;;;;;;5002599;28;20279;-64
2022/11/11 05:25:27;;;;;;;12.02;6.85;;;11.10;99.90;;;;;;4990229;28;20656;-64
2022/11/11 05:27:55;;;;;;;12.88;6.45;;;11.20;99.90;;;;;;5000736;28;20749;-64
2022/11/11 05:30:23;;;;;;;15.57;7.85;;;11.10;99.90;;;;;;5018205;22;20225;-64
2022/11/11 05:32:50;;;;;;;11.27;6.78;;;11.10;99.90;;;;;;5023784;28;20721;-64
2022/11/11 05:35:19;;;;;;;16.92;7.68;;;11.10;99.90;;;;;;5036334;28;20221;-63
2022/11/11 05:38:19;;;;;;;13.95;8.05;;;11.10;99.90;;;;;;5015910;28;20220;-64
2022/11/11 05:40:34;;;;;;;14.25;8.45;;;11.20;99.90;;;;;;5007629;28;20299;-63
2022/11/11 05:43:01;;;;;;;16.55;8.80;;;11.20;99.90;;;;;;5017494;28;20205;-63
2022/11/11 05:45:28;;;;;;;10.75;7.82;;;11.20;99.90;;;;;;5022564;28;20220;-63
2022/11/11 05:47:54;;;;;;;12.65;7.30;;;11.20;99.90;;;;;;5006623;28;21015;-64
2022/11/11 05:50:23;;;;;;;13.20;8.85;;;11.20;99.90;;;;;;5024628;28;20239;-64
2022/11/11 05:52:49;;;;;;;13.68;7.68;;;11.20;99.90;;;;;;4993940;28;20941;-63
2022/11/11 05:55:16;;;;;;;19.05;7.80;;;11.20;99.90;;;;;;4984052;28;20401;-63
2022/11/11 05:57:44;;;;;;;12.68;7.47;;;11.20;99.90;;;;;;4996579;28;20237;-63
2022/11/11 06:00:11;;;;;;;10.18;7.63;;;11.20;99.90;;;;;;4997954;28;21019;-64
2022/11/11 06:02:39;;;;;;;12.25;7.70;;;11.20;99.90;;;;;;5021056;28;20593;-64
2022/11/11 06:05:09;;;;;;;17.65;9.00;;;11.20;99.90;;;;;;5026885;28;20638;-63
2022/11/11 06:07:40;;;;;;;20.98;9.07;;;11.20;99.90;;;;;;5021230;28;20204;-63
2022/11/11 06:13:06;;;;;;;17.63;8.98;;;11.20;99.90;;;;;;5007276;28;20289;-63
2022/11/11 06:15:34;;;;;;;12.98;9.27;;;11.20;99.90;;;;;;5006843;28;20311;-64
2022/11/11 06:18:01;;;;;;;17.48;8.93;;;11.20;99.90;;;;;;5010221;28;20224;-64
2022/11/11 06:20:28;;;;;;;14.52;9.80;;;11.20;99.90;;;;;;5032092;28;20220;-63
2022/11/11 06:22:57;;;;;;;15.73;9.57;;;11.20;99.90;;;;;;5029570;28;20255;-64
2022/11/11 06:28:09;;;;;;;18.95;8.88;;;11.20;99.90;;;;;;5025025;28;21177;-64
2022/11/11 06:30:35;;;;;;;22.15;9.45;;;11.30;99.90;;;;;;5016329;28;20312;-64
2022/11/11 06:33:02;;;;;;;13.57;8.35;;;11.20;99.90;;;;;;5035256;28;20228;-63
2022/11/11 06:35:29;;;;;;;13.73;9.15;;;11.30;99.90;;;;;;5039735;28;20197;-64
2022/11/11 06:37:57;;;;;;;16.35;9.45;;;11.30;99.90;;;;;;5034368;28;20937;-63
2022/11/11 06:40:24;;;;;;;14.23;10.40;;;11.30;99.90;;;;;;5041565;28;21028;-64
2022/11/11 06:42:51;;;;;;;15.10;9.30;;;11.30;99.90;;;;;;5010702;28;20209;-64
2022/11/11 06:45:18;;;;;;;20.33;9.55;;;11.10;99.90;;;;;;5020162;28;20728;-63
2022/11/11 06:47:45;;;;;;;19.40;9.38;;;11.20;99.90;;;;;;5016203;28;20224;-63
2022/11/11 06:50:11;;;;;;;18.33;8.80;;;11.30;99.90;;;;;;5036406;28;20227;-64
2022/11/11 06:52:38;;;;;;;15.60;9.32;;;11.30;99.90;;;;;;5039507;28;20236;-63
2022/11/11 06:55:07;;;;;;;15.90;9.07;;;11.30;99.90;;;;;;5038094;28;20216;-64
2022/11/11 06:57:34;;;;;;;21.38;9.43;;;11.30;99.90;;;;;;5013644;28;20228;-63
2022/11/11 07:00:01;;;;;;;16.75;9.68;;;11.30;99.90;;;;;;5033692;28;20229;-64
2022/11/11 07:02:27;;;;;;;18.50;10.38;;;11.30;99.90;;;;;;5031890;28;20208;-65
2022/11/11 07:04:54;;;;;;;16.27;9.38;;;11.30;99.90;;;;;;5038288;28;20209;-65
2022/11/11 07:07:21;;;;;;;12.45;9.32;;;11.30;99.90;;;;;;5021912;28;20958;-64
2022/11/11 07:09:48;;;;;;;16.50;9.57;;;11.40;99.90;;;;;;5037403;28;20209;-64
2022/11/11 07:12:16;;;;;;;17.60;9.75;;;11.40;99.90;;;;;;5021139;28;20217;-64
2022/11/11 07:14:43;;;;;;;11.57;9.60;;;11.40;99.90;;;;;;5021039;28;20204;-64
2022/11/11 07:17:10;;;;;;;19.75;10.18;;;11.40;99.90;;;;;;5029395;28;20205;-63
2022/11/11 07:19:36;;;;;;;27.73;9.80;;;11.40;99.90;;;;;;5005862;28;21439;-64
2022/11/11 07:22:03;;;;;;;18.77;10.00;;;11.40;99.90;;;;;;5034791;28;20208;-64
2022/11/11 07:24:30;;;;;;;21.73;10.45;;;11.40;99.90;;;;;;5019344;28;20201;-64
2022/11/11 07:26:58;;;;;;;15.20;9.30;;;11.40;99.90;;;;;;5020453;28;20212;-64
2022/11/11 07:29:28;;;;;;;22.85;9.80;;;11.40;99.90;;;;;;5021815;28;20331;-64
2022/11/11 07:31:54;;;;;;;14.07;9.15;;;11.40;99.90;;;;;;5025210;28;20271;-64
2022/11/11 07:34:21;;;;;;;14.18;9.88;;;11.50;99.90;;;;;;5035398;28;20202;-63
2022/11/11 07:36:48;;;;;;;18.05;9.15;;;11.50;99.90;;;;;;5032019;28;20236;-64
2022/11/11 07:39:15;;;;;;;12.90;9.05;;;11.50;99.90;;;;;;5018810;28;20206;-63
2022/11/11 07:41:41;;;;;;;13.35;9.20;;;11.50;99.90;;;;;;5042361;28;20603;-63
2022/11/11 07:44:08;;;;;;;15.55;9.23;;;11.50;99.90;;;;;;4993364;28;20222;-64
2022/11/11 07:46:36;;;;;;;14.45;8.98;;;11.50;99.90;;;;;;5031310;28;20231;-64
2022/11/11 07:49:03;;;;;;;13.63;8.48;;;11.60;99.90;;;;;;5021075;28;20201;-64
2022/11/11 07:51:30;;;;;;;19.90;9.23;;;11.70;99.90;;;;;;5023750;28;20197;-64
2022/11/11 07:53:57;;;;;;;14.88;8.80;;;11.60;99.90;;;;;;5035482;28;20237;-64
2022/11/11 07:56:24;;;;;;;13.13;9.48;;;11.60;99.90;;;;;;5032999;28;20229;-64
2022/11/11 07:58:51;;;;;;;16.40;9.35;;;11.60;99.90;;;;;;5018034;28;20893;-63
2022/11/11 08:01:18;;;;;;;13.23;8.77;;;11.60;99.90;;;;;;5036731;28;20216;-64
2022/11/11 08:03:49;;;;;;;16.77;9.43;;;11.60;99.90;;;;;;5033134;28;20707;-64
2022/11/11 08:06:17;;;;;;;16.33;9.77;;;11.60;99.90;;;;;;5034782;28;20211;-64
2022/11/11 08:08:43;;;;;;;14.38;9.50;;;11.60;99.90;;;;;;5032159;28;20205;-64
2022/11/11 08:11:10;;;;;;;18.10;8.75;;;11.60;99.90;;;;;;5029688;28;20204;-64
2022/11/11 08:13:39;;;;;;;13.02;9.25;;;11.60;99.90;;;;;;5012890;28;22023;-64
2022/11/11 08:16:06;;;;;;;15.30;8.60;;;11.60;99.90;;;;;;5040228;28;20205;-63
2022/11/11 08:18:33;;;;;;;13.88;8.80;;;11.60;99.90;;;;;;5015948;28;22439;-64
2022/11/11 08:21:02;;;;;;;17.92;9.43;;;11.60;99.90;;;;;;5045860;28;20682;-64
2022/11/11 08:23:32;;;;;;;14.07;8.82;;;11.70;99.90;;;;;;5028454;28;20204;-64
2022/11/11 08:25:59;;;;;;;16.85;8.93;;;11.60;99.90;;;;;;5018990;28;20208;-64
2022/11/11 08:28:27;;;;;;;14.07;9.30;;;11.70;99.90;;;;;;5016685;28;20205;-65
2022/11/11 08:30:54;;;;;;;11.70;8.60;;;11.70;99.90;;;;;;5037933;28;20726;-64
2022/11/11 08:33:22;;;;;;;15.27;8.57;;;11.70;99.90;;;;;;5021620;28;20616;-64
2022/11/11 08:35:49;;;;;;;16.42;9.07;;;11.80;99.90;;;;;;5034162;28;20226;-64
2022/11/11 08:38:17;;;;;;;18.95;9.93;;;11.70;99.90;;;;;;5031596;28;20201;-63
2022/11/11 08:40:44;;;;;;;18.60;9.80;;;11.70;99.90;;;;;;5030358;28;20208;-64
2022/11/11 08:43:11;;;;;;;13.90;8.80;;;11.70;99.90;;;;;;5043244;28;20201;-64
2022/11/11 08:45:38;;;;;;;19.15;9.40;;;11.70;99.90;;;;;;5011881;28;20690;-64
2022/11/11 08:48:05;;;;;;;17.45;9.02;;;11.70;99.90;;;;;;5026594;28;20234;-64
2022/11/11 08:50:32;;;;;;;18.17;9.07;;;11.70;99.90;;;;;;5020579;28;20224;-64
2022/11/11 08:52:58;;;;;;;12.82;8.55;;;11.70;99.90;;;;;;5031040;28;20399;-64
2022/11/11 08:55:26;;;;;;;14.45;8.65;;;11.70;99.90;;;;;;5026094;28;20196;-65
2022/11/11 08:58:01;;;;;;;14.57;9.40;;;11.70;99.90;;;;;;5032142;28;21048;-65
2022/11/11 09:00:28;;;;;;;14.10;9.48;;;11.70;99.90;;;;;;5018716;28;20211;-65
2022/11/11 09:02:55;;;;;;;15.02;9.43;;;11.70;99.90;;;;;;5026138;28;20201;-64
2022/11/11 09:05:21;;;;;;;19.52;10.23;;;11.70;99.90;;;;;;5030720;28;20201;-65
2022/11/11 09:07:48;;;;;;;15.18;9.48;;;11.70;99.90;;;;;;5024525;28;20562;-64
2022/11/11 09:10:15;;;;;;;13.40;9.98;;;11.70;99.90;;;;;;5025788;28;20943;-64
2022/11/11 09:12:43;;;;;;;14.23;8.80;;;11.70;99.90;;;;;;5025820;28;20217;-64
2022/11/11 09:15:10;;;;;;;14.60;9.60;;;11.70;99.90;;;;;;5042392;28;20193;-65
2022/11/11 09:17:37;;;;;;;16.58;9.88;;;11.70;99.90;;;;;;4996124;28;20201;-65
2022/11/11 09:20:05;;;;;;;13.75;9.40;;;11.70;99.90;;;;;;5040906;28;20217;-64
2022/11/11 09:22:32;;;;;;;14.13;9.18;;;11.70;99.90;;;;;;5014706;28;20270;-64
2022/11/11 09:24:59;;;;;;;14.40;9.18;;;11.70;99.90;;;;;;5031429;28;20209;-64
2022/11/11 09:27:26;;;;;;;21.65;10.20;;;11.70;99.90;;;;;;5032814;28;20213;-65
2022/11/11 09:29:54;;;;;;;16.25;9.77;;;11.70;99.90;;;;;;5040835;28;20320;-64
2022/11/11 09:32:21;;;;;;;22.13;9.65;;;11.70;99.90;;;;;;5016590;28;20583;-64
2022/11/11 09:34:47;;;;;;;16.52;10.00;;;11.70;99.90;;;;;;5027683;28;20255;-64
2022/11/11 09:37:14;;;;;;;18.13;10.23;;;11.70;99.90;;;;;;5040283;28;20796;-64
2022/11/11 09:39:41;;;;;;;12.75;9.18;;;11.70;99.90;;;;;;5030124;28;20702;-64
2022/11/11 09:42:18;;;;;;;13.00;9.25;;;11.80;99.90;;;;;;5030189;28;20210;-65
2022/11/11 09:45:06;;;;;;;14.30;10.15;;;11.70;99.90;;;;;;5032050;28;20630;-63
2022/11/11 09:47:39;;;;;;;17.45;9.98;;;11.70;99.90;;;;;;5010025;28;20218;-64
2022/11/11 09:50:09;;;;;;;15.07;10.30;;;11.70;99.90;;;;;;5031976;28;20216;-61
2022/11/11 09:52:41;;;;;;;15.57;9.75;;;11.70;99.90;;;;;;5027433;28;20215;-64
2022/11/11 09:55:16;;;;;;;17.17;10.18;;;11.70;99.90;;;;;;5025987;28;20204;-64
2022/11/11 09:57:49;;;;;;;15.52;10.05;;;11.70;99.90;;;;;;5024051;28;20193;-64
2022/11/11 10:00:21;;;;;;;14.00;9.73;;;11.80;99.90;;;;;;5031700;28;20206;-64
2022/11/11 10:02:51;;;;;;;12.90;9.48;;;11.70;99.90;;;;;;5005220;28;21120;-65
2022/11/11 10:05:21;;;;;;;18.35;10.25;;;11.80;99.90;;;;;;5035903;28;20236;-64
2022/11/11 10:07:53;;;;;;;15.07;10.45;;;11.80;99.90;;;;;;5015189;28;20197;-65
2022/11/11 10:10:27;;;;;;;15.23;10.60;;;11.80;99.90;;;;;;5038049;28;20221;-64
2022/11/11 10:12:57;;;;;;;18.67;9.55;;;11.80;99.90;;;;;;5029031;28;20576;-64
2022/11/11 10:15:33;;;;;;;16.83;9.80;;;11.80;99.90;;;;;;5026388;28;20201;-64
2022/11/11 10:18:34;;;;;;;15.77;10.98;;;11.80;99.90;;;;;;5031397;28;20574;-65
2022/11/11 10:21:05;;;;;;;20.00;10.15;;;11.80;99.90;;;;;;5023819;28;20254;-65
2022/11/11 10:23:35;;;;;;;17.08;10.15;;;11.70;99.90;;;;;;5025770;28;20215;-65
2022/11/11 10:26:05;;;;;;;20.92;10.02;;;11.80;99.90;;;;;;5028096;28;20224;-64
2022/11/11 10:28:36;;;;;;;17.15;10.63;;;11.80;99.90;;;;;;5016486;28;20208;-64
2022/11/11 10:31:11;;;;;;;16.13;10.40;;;11.80;99.90;;;;;;5019195;28;20721;-65
2022/11/11 10:33:45;;;;;;;17.35;9.90;;;11.80;99.90;;;;;;5048629;28;20216;-64
2022/11/11 10:36:17;;;;;;;17.90;10.32;;;11.80;99.90;;;;;;5003745;28;20219;-64
2022/11/11 10:38:51;;;;;;;19.17;10.25;;;11.80;99.90;;;;;;5023007;28;20220;-64
2022/11/11 10:41:21;;;;;;;16.33;10.48;;;11.80;99.90;;;;;;5043939;28;20221;-64
2022/11/11 10:43:48;;;;;;;18.92;11.05;;;11.80;99.90;;;;;;5035270;28;20228;-65
2022/11/11 10:46:21;;;;;;;20.48;11.18;;;11.80;99.90;;;;;;5019109;28;20241;-64
2022/11/11 10:48:55;;;;;;;13.70;9.73;;;11.80;99.90;;;;;;5043494;28;20933;-64
2022/11/11 10:51:25;;;;;;;23.67;9.93;;;11.80;99.90;;;;;;5006003;28;23637;-65
2022/11/11 10:54:01;;;;;;;15.25;9.60;;;11.80;99.90;;;;;;5032662;28;20579;-64
2022/11/11 10:56:34;;;;;;;17.33;10.15;;;11.80;99.90;;;;;;5036902;28;20668;-64
2022/11/11 10:59:09;;;;;;;18.65;10.88;;;11.80;99.90;;;;;;5030484;28;20598;-64
2022/11/11 11:01:43;;;;;;;17.35;10.23;;;11.80;99.90;;;;;;5026969;28;20251;-64
2022/11/11 11:04:20;;;;;;;15.02;9.68;;;11.80;99.90;;;;;;5033345;28;20205;-64
2022/11/11 11:06:49;;;;;;;19.98;10.05;;;11.80;99.90;;;;;;5015999;28;20204;-64
2022/11/11 11:09:20;;;;;;;16.27;10.30;;;11.80;99.90;;;;;;5025215;28;20229;-64
2022/11/11 11:11:52;;;;;;;14.80;9.38;;;11.80;99.90;;;;;;5031005;28;20215;-64
2022/11/11 11:14:25;;;;;;;15.60;10.50;;;11.80;99.90;;;;;;5029766;28;20313;-64
2022/11/11 11:16:55;;;;;;;16.48;9.57;;;11.80;99.90;;;;;;5034052;28;20212;-64
2022/11/11 11:19:23;;;;;;;22.27;10.82;;;11.80;99.90;;;;;;5041469;28;20206;-64
2022/11/11 11:21:53;;;;;;;17.27;9.90;;;11.80;99.90;;;;;;5015469;28;20210;-64
2022/11/11 11:24:21;;;;;;;16.13;9.95;;;11.80;99.90;;;;;;5021704;28;20201;-64
2022/11/11 11:26:50;;;;;;;16.15;9.85;;;11.80;99.90;;;;;;5022524;28;20255;-65
2022/11/11 11:29:26;;;;;;;15.60;9.02;;;11.80;99.90;;;;;;5018402;28;20205;-64
2022/11/11 11:31:55;;;;;;;14.98;8.63;;;11.80;99.90;;;;;;5033349;28;20224;-64
2022/11/11 11:34:22;;;;;;;15.02;8.90;;;11.80;99.90;;;;;;5046922;28;20342;-64
2022/11/11 11:37:02;;;;;;;13.55;8.60;;;11.80;99.90;;;;;;5019269;28;20212;-64
2022/11/11 11:39:36;;;;;;;15.80;9.13;;;11.70;99.90;;;;;;5034683;28;21180;-64
2022/11/11 11:42:03;;;;;;;14.00;9.05;;;11.80;99.90;;;;;;5019757;28;20208;-64
2022/11/11 11:44:32;;;;;;;13.32;8.93;;;11.80;99.90;;;;;;5040780;28;20197;-64
2022/11/11 11:47:23;;;;;;;10.65;8.25;;;11.80;99.90;;;;;;5018569;28;20201;-64
2022/11/11 11:50:17;;;;;;;12.90;8.77;;;11.80;99.90;;;;;;5041862;28;20201;-64
2022/11/11 11:52:55;;;;;;;13.23;8.63;;;11.80;99.90;;;;;;5017167;28;20205;-64
2022/11/11 11:55:25;;;;;;;16.08;9.18;;;11.80;99.90;;;;;;5020190;28;20922;-64
2022/11/11 11:58:03;;;;;;;15.40;8.60;;;11.90;99.90;;;;;;5032178;28;20209;-64
2022/11/11 12:00:36;;;;;;;21.17;10.80;;;11.90;99.90;;;;;;5040248;28;20216;-64
2022/11/11 12:03:40;;;;;;;20.35;10.77;;;11.90;99.90;;;;;;5017307;28;20980;-64
2022/11/11 12:06:15;;;;;;;17.40;8.43;;;11.90;99.90;;;;;;5045650;28;20201;-65
2022/11/11 12:08:52;;;;;;;15.88;9.10;;;11.90;99.90;;;;;;5013877;28;20713;-64
2022/11/11 12:11:29;;;;;;;9.60;7.07;;;11.90;99.90;;;;;;5019952;28;20213;-65
2022/11/11 12:14:18;;;;;;;12.35;7.88;;;12.00;99.90;;;;;;5011085;28;20224;-64
2022/11/11 12:16:51;;;;;;;17.67;8.50;;;12.00;99.90;;;;;;5024538;28;20229;-64
2022/11/11 12:19:35;;;;;;;15.05;9.15;;;12.00;99.90;;;;;;5031053;28;20200;-64
2022/11/11 12:22:11;;;;;;;13.45;9.50;;;12.10;99.90;;;;;;5047945;28;20205;-64
2022/11/11 12:24:49;;;;;;;11.60;9.48;;;12.10;99.90;;;;;;4986762;28;20221;-65
2022/11/11 12:27:25;;;;;;;16.40;9.60;;;12.10;99.90;;;;;;5029453;28;20224;-64
2022/11/11 12:30:03;;;;;;;17.75;10.55;;;12.20;99.90;;;;;;5034596;28;21209;-66
2022/11/11 12:32:58;;;;;;;16.42;9.27;;;12.20;99.90;;;;;;5026666;28;20280;-65
2022/11/11 12:35:35;;;;;;;14.75;9.57;;;12.20;99.90;;;;;;5010728;28;20237;-65
2022/11/11 12:38:17;;;;;;;14.57;9.93;;;12.30;99.90;;;;;;5039912;28;20213;-65
2022/11/11 12:40:57;;;;;;;13.48;8.80;;;12.30;99.90;;;;;;4996114;28;20862;-65
2022/11/11 12:43:32;;;;;;;10.25;8.15;;;12.30;99.90;;;;;;5031843;28;20554;-65
2022/11/11 12:46:05;;;;;;;11.40;7.80;;;12.40;99.90;;;;;;5043052;28;20204;-65
2022/11/11 12:48:41;;;;;;;15.95;7.70;;;12.40;99.90;;;;;;5028827;28;20197;-65
2022/11/11 12:51:20;;;;;;;13.68;7.50;;;12.40;99.90;;;;;;5012353;28;20734;-65
2022/11/11 12:53:57;;;;;;;11.75;6.70;;;12.50;99.90;;;;;;5013517;28;20224;-65
2022/11/11 12:56:34;;;;;;;12.57;7.72;;;12.50;99.90;;;;;;5026305;28;20217;-64
2022/11/11 12:59:09;;;;;;;10.45;7.18;;;12.60;99.90;;;;;;5029231;28;20692;-65
2022/11/11 13:01:49;;;;;;;8.85;6.03;;;12.60;99.90;;;;;;5034556;28;20207;-65
2022/11/11 13:04:34;;;;;;;9.52;6.22;;;12.60;99.90;;;;;;5027523;28;20216;-65
2022/11/11 13:07:39;;;;;;;8.82;5.80;;;12.60;99.90;;;;;;5012235;28;20212;-65
2022/11/11 13:10:19;;;;;;;7.70;6.22;;;12.60;99.90;;;;;;4999322;28;20648;-64
2022/11/11 13:12:53;;;;;;;7.80;5.53;;;12.60;99.90;;;;;;5025128;28;20197;-64
2022/11/11 13:15:23;;;;;;;8.23;5.70;;;12.60;99.90;;;;;;5011121;28;20613;-65
2022/11/11 13:17:50;;;;;;;12.45;6.00;;;12.70;99.90;;;;;;5041264;28;20195;-65
2022/11/11 13:20:28;;;;;;;9.60;5.05;;;12.70;99.90;;;;;;5028874;28;20212;-64
2022/11/11 13:22:56;;;;;;;7.70;5.28;;;12.70;99.90;;;;;;5023670;28;20321;-64
2022/11/11 13:25:26;;;;;;;11.60;4.85;;;12.70;99.90;;;;;;4975497;28;20225;-65
2022/11/11 13:27:58;;;;;;;6.53;4.93;;;12.80;99.90;;;;;;5013121;28;20311;-65
2022/11/11 13:30:51;;;;;;;8.77;5.15;;;12.80;99.90;;;;;;4994549;28;20229;-66
2022/11/11 13:33:21;;;;;;;8.90;5.05;;;12.80;99.90;;;;;;5001653;28;20259;-64
2022/11/11 13:35:51;;;;;;;9.18;4.95;;;12.80;99.90;;;;;;5020111;28;20289;-65
2022/11/11 13:38:32;;;;;;;8.38;4.97;;;12.80;99.90;;;;;;5003685;28;20213;-64
2022/11/11 13:41:02;;;;;;;7.95;4.88;;;12.80;99.90;;;;;;5003637;28;20200;-64
2022/11/11 13:43:31;;;;;;;5.20;4.38;;;12.80;99.90;;;;;;5016517;28;20231;-64
2022/11/11 13:46:00;;;;;;;7.50;4.70;;;12.90;99.90;;;;;;5010679;28;20581;-64
2022/11/11 13:48:30;;;;;;;9.27;4.35;;;12.90;99.90;;;;;;4978484;28;20217;-66
2022/11/11 13:51:22;;;;;;;5.75;4.30;;;12.90;99.90;;;;;;5019282;28;20243;-63
2022/11/11 13:53:50;;;;;;;7.43;4.28;;;12.90;99.90;;;;;;4992794;28;20319;-64
2022/11/11 13:56:26;;;;;;;6.45;3.80;;;12.90;99.90;;;;;;4999827;28;20898;-64
2022/11/11 13:58:55;;;;;;;8.70;3.85;;;13.00;99.90;;;;;;5009007;28;20246;-64
2022/11/11 14:01:23;;;;;;;7.10;4.13;;;12.90;99.90;;;;;;4978484;28;20668;-64
2022/11/11 14:04:01;;;;;;;7.13;3.90;;;13.00;99.90;;;;;;5020129;28;20231;-66
2022/11/11 14:06:50;;;;;;;5.75;3.78;;;13.00;99.90;;;;;;5018072;28;20229;-64
2022/11/11 14:09:57;;;;;;;6.88;3.75;;;13.00;99.90;;;;;;5016553;28;20209;-64
2022/11/11 14:12:36;;;;;;;7.63;4.30;;;13.00;99.90;;;;;;5000711;28;24429;-64
2022/11/11 14:15:07;;;;;;;5.53;3.40;;;13.00;99.90;;;;;;5005989;28;21147;-65
2022/11/11 14:17:34;;;;;;;7.13;3.67;;;13.00;99.90;;;;;;5004264;28;20225;-64